createdAt,value
2018-06-20T00:02:17.714Z,11.80
2018-06-20T00:05:21.262Z,11.80
2018-06-20T00:07:59.495Z,11.80
2018-06-20T00:13:55.560Z,11.70
2018-06-20T00:21:23.383Z,11.50
2018-06-20T00:24:31.107Z,11.40
2018-06-20T00:27:09.746Z,11.40
2018-06-20T00:30:14.187Z,11.30
2018-06-20T00:33:12.387Z,11.30
2018-06-20T00:35:54.579Z,11.20
2018-06-20T00:38:35.970Z,11.20
2018-06-20T00:43:43.940Z,11.10
2018-06-20T00:46:18.052Z,11.10
2018-06-20T00:48:53.252Z,11.10
2018-06-20T00:51:28.386Z,11.00
2018-06-20T00:54:03.599Z,10.90
2018-06-20T00:56:37.773Z,10.80
2018-06-20T00:59:11.952Z,10.80
2018-06-20T01:01:47.089Z,10.70
2018-06-20T01:04:21.272Z,10.70
2018-06-20T01:06:56.480Z,10.70
2018-06-20T01:09:30.615Z,10.70
2018-06-20T01:12:04.823Z,10.60
2018-06-20T01:14:39.014Z,10.60
2018-06-20T01:17:13.173Z,10.60
2018-06-20T01:22:21.010Z,10.50
2018-06-20T01:24:55.200Z,10.50
2018-06-20T01:27:29.343Z,10.50
2018-06-20T01:30:03.543Z,10.40
2018-06-20T01:32:37.688Z,10.40
2018-06-20T01:35:12.861Z,10.40
2018-06-20T01:37:48.064Z,10.30
2018-06-20T01:40:22.280Z,10.30
2018-06-20T01:42:56.402Z,10.30
2018-06-20T01:45:30.604Z,10.30
2018-06-20T01:48:04.792Z,10.30
2018-06-20T01:50:39.983Z,10.30
2018-06-20T01:53:14.142Z,10.30
2018-06-20T01:55:48.345Z,10.20
2018-06-20T01:58:23.206Z,10.30
2018-06-20T02:00:57.424Z,10.20
2018-06-20T02:03:32.636Z,10.20
2018-06-20T02:06:07.858Z,10.20
2018-06-20T02:08:42.032Z,10.20
2018-06-20T02:11:16.185Z,10.20
2018-06-20T02:13:50.375Z,10.20
2018-06-20T02:16:24.552Z,10.20
2018-06-20T02:18:58.675Z,10.20
2018-06-20T02:21:32.870Z,10.20
2018-06-20T02:26:41.709Z,10.20
2018-06-20T02:29:15.888Z,10.20
2018-06-20T02:31:50.116Z,10.30
2018-06-20T02:34:24.305Z,10.30
2018-06-20T02:36:58.492Z,10.30
2018-06-20T02:39:32.628Z,10.20
2018-06-20T02:44:40.517Z,10.30
2018-06-20T02:47:14.765Z,10.30
2018-06-20T02:49:49.919Z,10.30
2018-06-20T02:52:24.196Z,10.30
2018-06-20T02:54:58.722Z,10.30
2018-06-20T03:05:52.512Z,10.50
2018-06-20T03:08:26.774Z,10.50
2018-06-20T03:11:00.891Z,10.60
2018-06-20T03:13:35.060Z,10.60
2018-06-20T03:16:09.163Z,10.80
2018-06-20T03:18:43.375Z,10.80
2018-06-20T03:21:17.494Z,11.00
2018-06-20T03:23:51.660Z,11.50
2018-06-20T03:26:25.776Z,12.40
2018-06-20T03:29:00.000Z,13.50
2018-06-20T03:31:34.147Z,14.50
2018-06-20T03:34:08.324Z,15.30
2018-06-20T03:36:43.062Z,15.90
2018-06-20T03:39:17.830Z,16.30
2018-06-20T03:41:52.518Z,16.70
2018-06-20T03:47:05.992Z,17.20
2018-06-20T03:49:49.071Z,17.40
2018-06-20T03:52:23.875Z,17.60
2018-06-20T03:54:58.799Z,17.60
2018-06-20T03:57:33.476Z,17.50
2018-06-20T04:02:44.145Z,17.90
2018-06-20T04:05:18.920Z,18.30
2018-06-20T04:07:53.644Z,18.60
2018-06-20T04:10:28.370Z,18.90
2018-06-20T04:13:03.040Z,18.90
2018-06-20T04:15:37.851Z,18.90
2018-06-20T04:18:12.519Z,19.10
2018-06-20T04:20:47.243Z,19.30
2018-06-20T04:23:21.934Z,19.30
2018-06-20T04:25:56.701Z,19.20
2018-06-20T04:28:31.421Z,19.70
2018-06-20T04:31:06.916Z,20.20
2018-06-20T04:33:41.626Z,20.70
2018-06-20T04:36:17.404Z,20.90
2018-06-20T04:38:52.136Z,21.00
2018-06-20T04:41:26.863Z,21.40
2018-06-20T04:44:01.571Z,21.80
2018-06-20T04:46:36.339Z,22.00
2018-06-20T04:49:11.007Z,22.20
2018-06-20T04:51:45.740Z,22.20
2018-06-20T04:54:20.580Z,22.40
2018-06-20T04:57:00.928Z,22.60
2018-06-20T05:02:33.290Z,22.20
2018-06-20T05:05:08.039Z,22.10
2018-06-20T05:07:42.762Z,21.80
2018-06-20T05:10:17.450Z,22.40
2018-06-20T05:12:52.182Z,22.70
2018-06-20T05:18:01.291Z,23.00
2018-06-20T05:20:37.010Z,22.70
2018-06-20T05:23:11.761Z,22.70
2018-06-20T05:25:46.478Z,22.80
2018-06-20T05:28:21.236Z,22.90
2018-06-20T05:33:31.221Z,22.30
2018-06-20T05:36:26.940Z,21.80
2018-06-20T05:39:05.653Z,20.90
2018-06-20T05:41:40.493Z,20.50
2018-06-20T05:44:19.264Z,20.30
2018-06-20T05:46:54.960Z,20.60
2018-06-20T05:49:34.664Z,20.50
2018-06-20T05:52:11.559Z,20.70
2018-06-20T05:54:46.331Z,20.90
2018-06-20T05:57:21.024Z,21.10
2018-06-20T05:59:55.818Z,21.20
2018-06-20T06:02:30.515Z,21.50
2018-06-20T06:05:06.583Z,21.70
2018-06-20T06:07:41.452Z,22.30
2018-06-20T06:10:16.763Z,22.70
2018-06-20T06:12:51.464Z,23.20
2018-06-20T06:15:26.226Z,23.20
2018-06-20T06:20:35.223Z,22.60
2018-06-20T06:23:09.928Z,22.40
2018-06-20T06:25:45.681Z,21.80
2018-06-20T06:28:20.478Z,22.30
2018-06-20T06:30:55.268Z,22.80
2018-06-20T06:33:29.964Z,22.70
2018-06-20T06:36:04.717Z,22.20
2018-06-20T06:38:39.471Z,21.90
2018-06-20T06:41:14.210Z,22.10
2018-06-20T06:43:49.983Z,21.70
2018-06-20T06:46:25.676Z,21.20
2018-06-20T06:49:00.433Z,21.10
2018-06-20T06:55:19.489Z,21.10
2018-06-20T07:14:59.363Z,22.20
2018-06-20T07:17:35.895Z,23.10
2018-06-20T07:20:10.676Z,23.70
2018-06-20T07:22:45.400Z,24.40
2018-06-20T07:25:20.109Z,23.80
2018-06-20T07:30:29.094Z,24.30
2018-06-20T07:33:03.887Z,24.50
2018-06-20T07:35:38.717Z,24.70
2018-06-20T07:38:13.499Z,24.20
2018-06-20T07:40:48.182Z,24.40
2018-06-20T07:43:22.915Z,24.40
2018-06-20T07:45:57.622Z,23.80
2018-06-20T07:48:32.392Z,23.70
2018-06-20T07:51:07.123Z,23.80
2018-06-20T07:53:41.891Z,24.40
2018-06-20T07:56:19.296Z,25.00
2018-06-20T07:58:56.931Z,24.60
2018-06-20T08:01:47.870Z,23.90
2018-06-20T08:04:27.761Z,24.00
2018-06-20T08:07:07.544Z,23.80
2018-06-20T08:09:47.475Z,24.00
2018-06-20T08:12:27.259Z,24.90
2018-06-20T08:15:07.394Z,25.40
2018-06-20T08:17:47.513Z,24.90
2018-06-20T08:20:25.148Z,24.80
2018-06-20T08:22:59.863Z,24.60
2018-06-20T08:25:34.620Z,24.40
2018-06-20T08:33:17.783Z,24.70
2018-06-20T08:35:52.523Z,24.60
2018-06-20T08:38:28.262Z,24.60
2018-06-20T08:41:02.995Z,24.90
2018-06-20T08:43:37.704Z,24.40
2018-06-20T08:46:12.437Z,23.90
2018-06-20T08:48:47.150Z,24.20
2018-06-20T08:53:56.094Z,25.00
2018-06-20T08:56:30.846Z,25.00
2018-06-20T08:59:06.615Z,26.00
2018-06-20T09:01:41.331Z,27.20
2018-06-20T09:04:21.233Z,27.30
2018-06-20T09:09:41.624Z,27.30
2018-06-20T09:12:21.535Z,26.60
2018-06-20T09:15:01.372Z,26.60
2018-06-20T09:17:41.285Z,26.90
2018-06-20T09:25:25.483Z,28.10
2018-06-20T09:28:01.448Z,27.20
2018-06-20T09:30:36.148Z,26.70
2018-06-20T09:35:45.141Z,26.80
2018-06-20T09:38:20.883Z,27.20
2018-06-20T09:40:55.566Z,28.00
2018-06-20T09:43:31.268Z,28.30
2018-06-20T09:46:07.007Z,28.50
2018-06-20T09:48:41.787Z,28.90
2018-06-20T09:53:50.768Z,27.90
2018-06-20T09:56:25.484Z,27.80
2018-06-20T09:59:06.521Z,26.70
2018-06-20T10:04:25.795Z,26.50
2018-06-20T10:08:06.395Z,26.30
2018-06-20T10:10:46.321Z,26.80
2018-06-20T10:15:59.265Z,26.70
2018-06-20T10:18:34.027Z,26.80
2018-06-20T10:21:09.799Z,26.50
2018-06-20T10:23:44.704Z,26.30
2018-06-20T10:26:19.427Z,26.70
2018-06-20T10:28:54.121Z,27.10
2018-06-20T10:34:04.075Z,26.10
2018-06-20T10:36:39.814Z,26.40
2018-06-20T10:39:15.551Z,26.50
2018-06-20T10:41:50.293Z,26.60
2018-06-20T10:44:25.011Z,27.00
2018-06-20T10:47:06.024Z,27.50
2018-06-20T10:49:40.744Z,28.00
2018-06-20T10:52:15.843Z,28.50
2018-06-20T10:54:50.575Z,28.50
2018-06-20T10:57:30.384Z,28.70
2018-06-20T11:00:10.251Z,27.80
2018-06-20T11:02:50.256Z,26.90
2018-06-20T11:05:30.158Z,26.90
2018-06-20T11:08:10.131Z,27.00
2018-06-20T11:11:49.479Z,27.40
2018-06-20T11:14:24.229Z,27.10
2018-06-20T11:16:58.989Z,27.20
2018-06-20T11:19:33.767Z,27.00
2018-06-20T11:22:08.504Z,26.60
2018-06-20T11:24:43.256Z,26.10
2018-06-20T11:27:17.978Z,26.10
2018-06-20T11:29:52.737Z,26.20
2018-06-20T11:32:28.548Z,25.80
2018-06-20T11:35:04.367Z,25.80
2018-06-20T11:37:40.093Z,25.70
2018-06-20T11:40:14.874Z,25.40
2018-06-20T11:42:50.584Z,25.60
2018-06-20T11:45:29.429Z,25.90
2018-06-20T11:48:04.136Z,25.70
2018-06-20T11:50:38.961Z,25.50
2018-06-20T11:53:13.836Z,25.70
2018-06-20T11:55:48.618Z,25.60
2018-06-20T11:58:28.390Z,25.60
2018-06-20T12:01:09.242Z,25.70
2018-06-20T12:03:49.624Z,26.30
2018-06-20T12:06:29.835Z,26.70
2018-06-20T12:11:49.123Z,26.10
2018-06-20T12:17:02.564Z,25.50
2018-06-20T12:25:01.492Z,26.80
2018-06-20T12:27:42.458Z,27.00
2018-06-20T12:30:22.427Z,26.80
2018-06-20T12:33:03.499Z,27.20
2018-06-20T12:35:43.956Z,26.80
2018-06-20T12:38:23.728Z,25.80
2018-06-20T12:42:03.257Z,25.50
2018-06-20T12:44:42.998Z,25.60
2018-06-20T12:47:27.218Z,26.00
2018-06-20T12:55:13.876Z,26.80
2018-06-20T12:57:49.643Z,27.10
2018-06-20T13:00:24.336Z,26.30
2018-06-20T13:05:34.402Z,25.90
2018-06-20T13:08:09.224Z,25.80
2018-06-20T13:13:18.527Z,25.70
2018-06-20T13:15:53.255Z,25.60
2018-06-20T13:18:27.997Z,25.80
2018-06-20T13:21:02.669Z,26.40
2018-06-20T13:23:38.123Z,26.70
2018-06-20T13:26:12.803Z,26.60
2018-06-20T13:28:47.547Z,26.20
2018-06-20T13:31:27.548Z,26.20
2018-06-20T13:34:07.125Z,26.60
2018-06-20T13:36:48.067Z,26.70
2018-06-20T13:39:27.980Z,26.30
2018-06-20T13:42:07.675Z,26.50
2018-06-20T13:44:43.419Z,26.70
2018-06-20T13:47:23.261Z,26.60
2018-06-20T13:49:58.896Z,26.20
2018-06-20T13:52:33.666Z,26.40
2018-06-20T13:58:12.185Z,25.60
2018-06-20T14:00:46.972Z,25.60
2018-06-20T14:03:21.667Z,25.90
2018-06-20T14:08:30.665Z,25.90
2018-06-20T14:11:05.442Z,25.90
2018-06-20T14:13:40.188Z,25.80
2018-06-20T14:16:14.911Z,26.20
2018-06-20T14:18:50.734Z,26.40
2018-06-20T14:21:30.760Z,26.20
2018-06-20T14:24:08.096Z,26.20
2018-06-20T14:26:42.826Z,26.50
2018-06-20T14:29:17.240Z,26.80
2018-06-20T14:31:57.231Z,27.10
2018-06-20T14:34:37.031Z,27.20
2018-06-20T14:38:17.398Z,27.10
2018-06-20T14:40:58.007Z,27.10
2018-06-20T14:43:38.038Z,26.60
2018-06-20T14:46:16.887Z,26.20
2018-06-20T14:48:52.676Z,26.10
2018-06-20T14:51:27.412Z,25.80
2018-06-20T14:54:02.159Z,25.90
2018-06-20T14:56:36.903Z,26.10
2018-06-20T14:59:12.638Z,26.00
2018-06-20T15:01:48.412Z,26.10
2018-06-20T15:04:24.337Z,26.10
2018-06-20T15:06:59.219Z,25.90
2018-06-20T15:09:33.818Z,26.10
2018-06-20T15:12:08.572Z,26.20
2018-06-20T15:17:22.760Z,26.60
2018-06-20T15:19:57.686Z,26.30
2018-06-20T15:22:37.592Z,26.20
2018-06-20T15:25:12.300Z,26.20
2018-06-20T15:27:52.246Z,26.20
2018-06-20T15:30:33.678Z,26.60
2018-06-20T15:33:25.864Z,26.50
2018-06-20T15:37:05.596Z,26.60
2018-06-20T15:39:40.288Z,26.70
2018-06-20T15:42:15.041Z,26.50
2018-06-20T15:44:49.744Z,26.30
2018-06-20T15:47:24.499Z,26.20
2018-06-20T15:49:59.178Z,26.20
2018-06-20T15:52:33.925Z,26.10
2018-06-20T15:55:09.690Z,25.90
2018-06-20T15:57:44.595Z,25.90
2018-06-20T16:00:19.367Z,26.10
2018-06-20T16:02:55.458Z,26.00
2018-06-20T16:05:31.707Z,26.00
2018-06-20T16:08:07.499Z,25.90
2018-06-20T16:10:42.776Z,26.00
2018-06-20T16:13:17.519Z,26.00
2018-06-20T16:15:52.252Z,26.00
2018-06-20T16:18:27.107Z,25.90
2018-06-20T16:21:07.141Z,25.80
2018-06-20T16:24:45.659Z,25.80
2018-06-20T16:27:25.664Z,25.80
2018-06-20T16:30:05.592Z,25.90
2018-06-20T16:32:40.357Z,25.90
2018-06-20T16:35:15.075Z,25.80
2018-06-20T16:37:49.916Z,25.70
2018-06-20T16:40:26.056Z,25.70
2018-06-20T16:43:00.997Z,25.80
2018-06-20T16:45:35.799Z,25.80
2018-06-20T16:48:10.551Z,26.00
2018-06-20T16:50:45.299Z,26.10
2018-06-20T16:53:20.077Z,26.10
2018-06-20T16:55:54.878Z,26.10
2018-06-20T16:58:29.601Z,26.10
2018-06-20T17:06:18.129Z,25.90
2018-06-20T17:08:52.965Z,25.80
2018-06-20T17:11:27.848Z,25.80
2018-06-20T17:14:07.966Z,25.70
2018-06-20T17:16:47.852Z,25.70
2018-06-20T17:19:27.684Z,25.70
2018-06-20T17:25:44.435Z,25.60
2018-06-20T17:28:20.452Z,25.60
2018-06-20T17:30:56.265Z,25.60
2018-06-20T17:33:34.026Z,25.50
2018-06-20T17:36:15.138Z,25.50
2018-06-20T17:38:53.840Z,25.50
2018-06-20T17:41:32.858Z,25.40
2018-06-20T17:44:17.766Z,25.40
2018-06-20T17:46:58.910Z,25.30
2018-06-20T17:52:09.195Z,25.30
2018-06-20T17:54:44.541Z,25.20
2018-06-20T17:57:19.648Z,25.20
2018-06-20T17:59:57.535Z,25.20
2018-06-20T18:02:32.327Z,25.10
2018-06-20T18:05:12.148Z,25.10
2018-06-20T18:07:51.983Z,25.10
2018-06-20T18:10:32.033Z,25.00
2018-06-20T18:13:06.792Z,25.00
2018-06-20T18:15:46.716Z,24.90
2018-06-20T18:18:21.498Z,24.80
2018-06-20T18:23:36.605Z,24.70
2018-06-20T18:26:15.232Z,24.70
2018-06-20T18:28:51.510Z,24.60
2018-06-20T18:31:37.443Z,24.60
2018-06-20T18:34:20.069Z,24.50
2018-06-20T18:36:55.742Z,24.50
2018-06-20T18:39:38.670Z,24.40
2018-06-20T18:42:14.675Z,24.40
2018-06-20T18:48:08.435Z,24.20
2018-06-20T18:50:52.924Z,24.20
2018-06-20T18:53:42.321Z,24.10
2018-06-20T19:02:49.321Z,23.80
2018-06-20T19:05:31.815Z,23.60
2018-06-20T19:08:11.907Z,23.60
2018-06-20T19:10:46.684Z,23.50
2018-06-20T19:15:55.945Z,23.30
2018-06-20T19:21:05.020Z,23.10
2018-06-20T19:23:39.771Z,23.00
2018-06-20T19:26:15.589Z,22.90
2018-06-20T19:28:51.388Z,22.80
2018-06-20T19:31:26.137Z,22.80
2018-06-20T19:36:35.152Z,22.60
2018-06-20T19:39:15.112Z,22.50
2018-06-20T19:41:50.045Z,22.40
2018-06-20T19:44:30.124Z,22.20
2018-06-20T19:47:06.171Z,22.20
2018-06-20T19:54:49.368Z,21.80
2018-06-20T19:57:25.168Z,21.70
2018-06-20T19:59:59.896Z,21.50
2018-06-20T20:05:09.109Z,21.30
2018-06-20T20:07:43.888Z,21.10
2018-06-20T20:10:19.680Z,21.00
2018-06-20T20:12:54.470Z,20.90
2018-06-20T20:15:29.375Z,20.80
2018-06-20T20:18:04.131Z,20.70
2018-06-20T20:20:38.850Z,20.70
2018-06-20T20:23:13.626Z,20.60
2018-06-20T20:25:48.388Z,20.50
2018-06-20T20:30:57.363Z,20.30
2018-06-20T20:33:32.124Z,20.30
2018-06-20T20:36:06.862Z,20.40
2018-06-20T20:38:41.609Z,20.50
2018-06-20T20:43:50.675Z,20.50
2018-06-20T20:46:25.386Z,20.60
2018-06-20T20:49:01.230Z,20.50
2018-06-20T20:54:10.244Z,20.30
2018-06-20T20:56:54.432Z,20.30
2018-06-20T20:59:29.167Z,20.10
2018-06-20T21:02:03.952Z,20.00
2018-06-20T21:04:39.127Z,19.80
2018-06-20T21:07:13.835Z,19.90
2018-06-20T21:12:23.945Z,19.60
2018-06-20T21:15:06.861Z,19.50
2018-06-20T21:17:43.294Z,19.40
2018-06-20T21:20:18.053Z,19.30
2018-06-20T21:22:52.734Z,19.30
2018-06-20T21:28:02.740Z,19.10
2018-06-20T21:30:37.504Z,19.00
2018-06-20T21:33:12.195Z,19.00
2018-06-20T21:35:46.968Z,18.90
2018-06-20T21:40:56.000Z,18.80
2018-06-20T21:43:30.689Z,18.70
2018-06-20T21:46:05.563Z,18.60
2018-06-20T21:51:14.748Z,18.40
2018-06-20T21:53:50.508Z,18.30
2018-06-20T21:56:25.260Z,18.30
2018-06-20T21:59:00.008Z,18.20
2018-06-20T22:01:34.812Z,18.10
2018-06-20T22:04:09.699Z,18.00
2018-06-20T22:06:44.460Z,18.00
2018-06-20T22:09:19.190Z,17.90
2018-06-20T22:11:53.954Z,17.80
2018-06-20T22:19:38.294Z,17.80
2018-06-20T22:22:13.052Z,17.80
2018-06-20T22:24:47.785Z,17.70
2018-06-20T22:32:32.284Z,17.70
2018-06-20T22:35:06.992Z,17.70
2018-06-20T22:37:41.714Z,17.70
2018-06-20T22:40:16.522Z,17.70
2018-06-20T22:42:51.300Z,17.60
2018-06-20T22:45:26.010Z,17.50
2018-06-20T22:50:36.010Z,17.50
2018-06-20T22:53:10.795Z,17.40
2018-06-20T22:55:45.491Z,17.30
2018-06-20T22:58:20.202Z,17.20
2018-06-20T23:00:55.924Z,17.10
2018-06-20T23:03:30.663Z,17.10
2018-06-20T23:06:06.473Z,17.00
2018-06-20T23:11:19.147Z,16.90
2018-06-20T23:13:53.867Z,16.90
2018-06-20T23:16:28.576Z,16.70
2018-06-20T23:19:03.391Z,16.70
2018-06-20T23:21:38.215Z,16.70
2018-06-20T23:24:13.024Z,16.60
2018-06-20T23:26:48.757Z,16.60
2018-06-20T23:29:23.502Z,16.50
2018-06-20T23:31:58.240Z,16.50
2018-06-20T23:34:33.032Z,16.40
2018-06-20T23:37:07.777Z,16.40
2018-06-20T23:39:42.556Z,16.40
2018-06-20T23:42:17.264Z,16.30
2018-06-20T23:44:52.020Z,16.30
2018-06-20T23:47:26.716Z,16.30
2018-06-20T23:50:01.459Z,16.30
2018-06-20T23:52:36.143Z,16.30
2018-06-20T23:55:18.454Z,16.30
2018-06-20T23:57:53.638Z,16.20
